tititudorancea.com
Station Historical Data
Daily Summary for January 10, 2019 Units:  English    Metric   Both
« Previous Day
Next Day »
Daily Weekly Monthly Yearly Custom
  High: Low: Average:
Temperature: TemperatureF °F 44.7 °F 58.7 °F
Dew Point: DewpointF °F 38.1 °F 42 °F
Humidity: Humidity % 26 % 58 %
Wind Speed: WindSpeedMPH mph 0.0 mph 7.1 mph
Wind Gust: WindSpeedGustMPH mph - -
Wind:- - South
Pressure: PressureIn in 29.96 in -
Precipitation: 0.00 in    
Historical Graphs
 
 
Ararat weather Find more about Weather in Ararat, AU


 



 


Tabular Data for January 10, 2019
Time Temperature Dew Point Pressure Wind Wind Speed Wind Gust Humidity Rainfall Rate (Hourly)
TemperatureF °F DewpointF °F PressureIn in Calm     Humidity % HourlyPrecipIn in
00:04 51.9 °F 42.0 °F 30.06 in South 7.0 mph 4.4 mph 69 % 0.00 in
00:09 51.7 °F 41.9 °F 30.06 in South 5.0 mph 3.0 mph 69 % 0.00 in
00:14 51.4 °F 41.9 °F 30.06 in South 8.1 mph 5.0 mph 70 % 0.00 in
00:19 51.3 °F 41.8 °F 30.06 in North 6.9 mph 4.3 mph 70 % 0.00 in
00:24 51.1 °F 41.7 °F 30.05 in South 6.9 mph 3.4 mph 70 % 0.00 in
00:29 51.0 °F 41.9 °F 30.05 in South 8.1 mph 5.0 mph 71 % 0.00 in
00:34 50.9 °F 41.8 °F 30.05 in South 6.0 mph 2.9 mph 71 % 0.00 in
00:39 50.8 °F 41.7 °F 30.05 in South 6.0 mph 3.8 mph 71 % 0.00 in
00:44 50.6 °F 41.5 °F 30.05 in North 3.5 mph 2.4 mph 71 % 0.00 in
00:49 50.5 °F 41.8 °F 30.05 in South 3.5 mph 1.5 mph 72 % 0.00 in
00:54 50.3 °F 41.6 °F 30.05 in South 4.6 mph 2.7 mph 72 % 0.00 in
00:59 50.2 °F 41.5 °F 30.05 in South 3.5 mph 0.1 mph 72 % 0.00 in
01:04 50.1 °F 41.8 °F 30.05 in North 6.9 mph 3.8 mph 73 % 0.00 in
01:09 50.0 °F 41.7 °F 30.05 in North 3.5 mph 2.5 mph 73 % 0.00 in
01:14 49.8 °F 41.5 °F 30.05 in South 5.8 mph 1.2 mph 73 % 0.00 in
01:19 49.8 °F 41.8 °F 30.05 in South 5.8 mph 3.0 mph 74 % 0.00 in
01:24 49.7 °F 41.7 °F 30.05 in North 5.8 mph 3.6 mph 74 % 0.00 in
01:29 49.7 °F 42.1 °F 30.05 in North 8.1 mph 6.8 mph 75 % 0.00 in
01:34 49.7 °F 42.1 °F 30.05 in South 8.1 mph 5.0 mph 75 % 0.00 in
01:39 49.7 °F 42.1 °F 30.05 in South 3.5 mph 2.9 mph 75 % 0.00 in
01:44 49.5 °F 41.6 °F 30.05 in North 5.8 mph 2.5 mph 74 % 0.00 in
01:49 49.2 °F 41.6 °F 30.05 in South 3.5 mph 1.9 mph 75 % 0.00 in
01:54 48.8 °F 41.6 °F 30.05 in South 5.8 mph 2.8 mph 76 % 0.00 in
01:59 48.6 °F 41.4 °F 30.05 in South 3.5 mph 1.6 mph 76 % 0.00 in
02:04 48.4 °F 41.5 °F 30.05 in South 4.6 mph 3.8 mph 77 % 0.00 in
02:09 48.2 °F 41.7 °F 30.05 in South 5.8 mph 2.2 mph 78 % 0.00 in
02:14 48.0 °F 41.5 °F 30.05 in South 4.0 mph 2.0 mph 78 % 0.00 in
02:19 47.8 °F 41.3 °F 30.05 in South 3.5 mph 3.1 mph 78 % 0.00 in
02:24 47.7 °F 41.5 °F 30.05 in South 2.3 mph 2.2 mph 79 % 0.00 in
02:29 47.5 °F 41.3 °F 30.05 in South 3.5 mph 2.4 mph 79 % 0.00 in
02:34 47.4 °F 41.2 °F 30.05 in South 3.5 mph 1.8 mph 79 % 0.00 in
02:39 47.3 °F 41.1 °F 30.05 in South 4.6 mph 3.6 mph 79 % 0.00 in
02:44 47.2 °F 41.3 °F 30.05 in South 5.8 mph 4.7 mph 80 % 0.00 in
02:49 47.1 °F 41.2 °F 30.05 in South 4.6 mph 2.4 mph 80 % 0.00 in
02:54 47.1 °F 41.6 °F 30.05 in North 2.3 mph 1.1 mph 81 % 0.00 in
02:59 46.9 °F 41.1 °F 30.05 in South 3.5 mph 1.5 mph 80 % 0.00 in
03:04 46.8 °F 41.3 °F 30.04 in North 3.5 mph 2.3 mph 81 % 0.00 in
03:09 46.7 °F 41.2 °F 30.04 in South 3.5 mph 2.8 mph 81 % 0.00 in
03:14 46.6 °F 41.1 °F 30.04 in South 4.6 mph 2.5 mph 81 % 0.00 in
03:19 46.5 °F 41.0 °F 30.04 in North 3.5 mph 2.3 mph 81 % 0.00 in
03:24 46.5 °F 41.3 °F 30.04 in South 5.8 mph 3.0 mph 82 % 0.00 in
03:29 46.4 °F 41.2 °F 30.04 in South 3.0 mph 1.6 mph 82 % 0.00 in
03:34 46.4 °F 41.2 °F 30.04 in North 3.5 mph 3.2 mph 82 % 0.00 in
03:39 46.3 °F 41.1 °F 30.03 in South 4.6 mph 3.7 mph 82 % 0.00 in
03:44 46.3 °F 41.4 °F 30.03 in South 4.0 mph 2.6 mph 83 % 0.00 in
03:49 46.3 °F 41.4 °F 30.03 in North 3.5 mph 2.6 mph 83 % 0.00 in
03:54 46.3 °F 41.4 °F 30.03 in South 4.6 mph 2.7 mph 83 % 0.00 in
03:59 46.3 °F 41.4 °F 30.02 in South 3.5 mph 2.1 mph 83 % 0.00 in
04:04 46.3 °F 41.4 °F 30.02 in North 5.8 mph 3.3 mph 83 % 0.00 in
04:09 46.2 °F 41.3 °F 30.03 in South 3.5 mph 3.3 mph 83 % 0.00 in
04:14 46.2 °F 41.3 °F 30.03 in South 2.3 mph 1.2 mph 83 % 0.00 in
04:19 46.2 °F 41.3 °F 30.03 in South 3.5 mph 1.0 mph 83 % 0.00 in
04:24 46.3 °F 41.4 °F 30.03 in South 4.6 mph 1.6 mph 83 % 0.00 in
04:29 46.3 °F 41.4 °F 30.02 in North 2.3 mph 0.7 mph 83 % 0.00 in
04:34 46.2 °F 41.3 °F 30.03 in South 2.3 mph 1.2 mph 83 % 0.00 in
04:39 46.0 °F 40.8 °F 30.03 in South 1.2 mph   82 % 0.00 in
04:44 45.8 °F 40.9 °F 30.03 in Calm     83 % 0.00 in
04:49 45.7 °F 40.8 °F 30.03 in Calm     83 % 0.00 in
04:54 45.5 °F 40.6 °F 30.03 in Calm     83 % 0.00 in
04:59 45.4 °F 40.5 °F 30.04 in Calm     83 % 0.00 in
05:04 45.2 °F 40.7 °F 30.04 in Calm     84 % 0.00 in
05:09 44.9 °F 40.4 °F 30.03 in North 2.3 mph 1.5 mph 84 % 0.00 in
05:14 44.8 °F 40.6 °F 30.04 in South 2.3 mph 1.5 mph 85 % 0.00 in
05:19 44.8 °F 40.6 °F 30.04 in South 4.6 mph 2.6 mph 85 % 0.00 in
05:24 44.8 °F 40.9 °F 30.04 in North 4.6 mph 2.2 mph 86 % 0.00 in
05:29 45.1 °F 41.2 °F 30.03 in North 3.5 mph 3.3 mph 86 % 0.00 in
05:34 45.3 °F 41.4 °F 30.04 in South 4.6 mph 3.1 mph 86 % 0.00 in
05:39 45.5 °F 41.3 °F 30.04 in South 4.6 mph 4.2 mph 85 % 0.00 in
05:44 45.8 °F 41.5 °F 30.04 in South 5.0 mph 2.5 mph 85 % 0.00 in
05:49 45.9 °F 41.6 °F 30.04 in South 4.6 mph 3.3 mph 85 % 0.00 in
05:54 46.1 °F 41.8 °F 30.03 in South 5.8 mph 5.7 mph 85 % 0.00 in
05:59 46.3 °F 41.7 °F 30.03 in South 4.6 mph 4.3 mph 84 % 0.00 in
06:04 46.3 °F 41.7 °F 30.04 in South 4.6 mph 2.7 mph 84 % 0.00 in
06:09 46.3 °F 41.4 °F 30.04 in South 3.5 mph 1.0 mph 83 % 0.00 in
06:14 46.2 °F 41.3 °F 30.05 in South 2.3 mph 1.1 mph 83 % 0.00 in
06:19 46.0 °F 41.1 °F 30.05 in South 2.3 mph 1.4 mph 83 % 0.00 in
06:24 45.6 °F 40.7 °F 30.05 in South 1.2 mph   83 % 0.00 in
06:29 45.3 °F 40.7 °F 30.06 in Calm     84 % 0.00 in
06:34 45.1 °F 40.6 °F 30.06 in Calm     84 % 0.00 in
06:39 44.9 °F 40.4 °F 30.07 in Calm     84 % 0.00 in
06:44 44.7 °F 40.5 °F 30.07 in Calm     85 % 0.00 in
06:49 44.8 °F 40.6 °F 30.07 in South 2.3 mph 1.7 mph 85 % 0.00 in
06:54 45.1 °F 41.2 °F 30.07 in South 4.0 mph 2.6 mph 86 % 0.00 in
06:59 45.7 °F 41.8 °F 30.07 in South 5.0 mph 4.0 mph 86 % 0.00 in
07:04 46.3 °F 42.3 °F 30.07 in South 3.5 mph 2.1 mph 86 % 0.00 in
07:09 46.8 °F 42.5 °F 30.07 in North 2.3 mph 1.5 mph 85 % 0.00 in
07:14 47.4 °F 43.1 °F 30.07 in South 4.0 mph 1.9 mph 85 % 0.00 in
07:19 48.0 °F 43.4 °F 30.07 in South 4.6 mph 1.5 mph 84 % 0.00 in
07:24 48.4 °F 43.5 °F 30.08 in South 3.5 mph 2.8 mph 83 % 0.00 in
07:29 49.1 °F 44.2 °F 30.08 in South 4.0 mph 2.6 mph 83 % 0.00 in
07:34 49.5 °F 43.9 °F 30.08 in South 4.6 mph 1.6 mph 81 % 0.00 in
07:39 49.6 °F 44.0 °F 30.08 in South 3.5 mph 3.4 mph 81 % 0.00 in
07:44 50.1 °F 44.5 °F 30.09 in South 2.3 mph 1.6 mph 81 % 0.00 in
07:49 50.5 °F 44.6 °F 30.08 in South 4.6 mph 2.5 mph 80 % 0.00 in
07:54 50.9 °F 44.3 °F 30.09 in South 4.6 mph 3.0 mph 78 % 0.00 in
07:59 51.6 °F 45.0 °F 30.09 in South 5.8 mph 4.0 mph 78 % 0.00 in
08:04 52.0 °F 44.7 °F 30.09 in South 5.8 mph 1.1 mph 76 % 0.00 in
08:09 52.3 °F 45.0 °F 30.09 in South 5.8 mph 2.6 mph 76 % 0.00 in
08:14 53.0 °F 44.9 °F 30.09 in South 5.8 mph 3.0 mph 74 % 0.00 in
08:19 53.6 °F 45.2 °F 30.09 in South 6.0 mph 4.9 mph 73 % 0.00 in
08:24 53.7 °F 44.9 °F 30.09 in South 4.6 mph 3.7 mph 72 % 0.00 in
08:29 54.2 °F 45.4 °F 30.09 in South 5.8 mph 2.8 mph 72 % 0.00 in
08:34 54.5 °F 45.3 °F 30.09 in South 7.0 mph 4.3 mph 71 % 0.00 in
08:39 54.9 °F 45.3 °F 30.09 in South 7.0 mph 5.4 mph 70 % 0.00 in
08:44 55.3 °F 45.3 °F 30.09 in South 8.1 mph 8.1 mph 69 % 0.00 in
08:49 55.4 °F 45.0 °F 30.09 in South 5.8 mph 3.3 mph 68 % 0.00 in
08:54 56.0 °F 45.6 °F 30.08 in South 6.9 mph 4.2 mph 68 % 0.00 in
08:59 56.6 °F 45.4 °F 30.09 in South 11.5 mph 8.5 mph 66 % 0.00 in
09:04 57.0 °F 44.9 °F 30.09 in South 11.5 mph 8.0 mph 64 % 0.00 in
09:09 57.5 °F 45.0 °F 30.09 in SSE 10.4 mph 4.9 mph 63 % 0.00 in
09:14 58.0 °F 44.6 °F 30.09 in SSE 12.7 mph 8.9 mph 61 % 0.00 in
09:19 58.0 °F 44.6 °F 30.09 in SSE 10.4 mph 7.1 mph 61 % 0.00 in
09:24 58.0 °F 44.2 °F 30.09 in SE 12.7 mph 8.7 mph 60 % 0.00 in
09:29 58.2 °F 43.9 °F 30.09 in SSE 12.7 mph 9.1 mph 59 % 0.00 in
09:34 58.5 °F 44.2 °F 30.09 in SSE 11.5 mph 8.7 mph 59 % 0.00 in
09:39 58.7 °F 44.4 °F 30.08 in SE 15.0 mph 6.5 mph 59 % 0.00 in
09:44 58.8 °F 44.0 °F 30.08 in SSE 11.5 mph 7.1 mph 58 % 0.00 in
09:49 59.4 °F 44.2 °F 30.08 in SSE 17.3 mph 8.1 mph 57 % 0.00 in
09:54 59.1 °F 43.9 °F 30.08 in SSE 11.5 mph 7.1 mph 57 % 0.00 in
09:59 58.9 °F 43.7 °F 30.08 in SSE 13.8 mph 9.9 mph 57 % 0.00 in
10:04 59.6 °F 44.8 °F 30.07 in South 11.5 mph 10.1 mph 58 % 0.00 in
10:09 59.8 °F 43.6 °F 30.08 in SSE 12.0 mph 8.5 mph 55 % 0.00 in
10:14 59.7 °F 43.5 °F 30.08 in SSE 12.7 mph 8.8 mph 55 % 0.00 in
10:19 59.3 °F 42.6 °F 30.08 in SSE 13.8 mph 9.5 mph 54 % 0.00 in
10:24 59.5 °F 43.3 °F 30.08 in SSE 15.0 mph 11.5 mph 55 % 0.00 in
10:29 59.7 °F 43.5 °F 30.08 in SSE 8.1 mph 5.5 mph 55 % 0.00 in
10:34 59.9 °F 43.7 °F 30.08 in South 7.0 mph 6.5 mph 55 % 0.00 in
10:39 60.4 °F 43.7 °F 30.08 in SSE 9.0 mph 7.2 mph 54 % 0.00 in
10:44 60.9 °F 43.6 °F 30.08 in SE 15.0 mph 8.1 mph 53 % 0.00 in
10:49 61.5 °F 43.2 °F 30.08 in SE 8.1 mph 4.5 mph 51 % 0.00 in
10:54 61.6 °F 43.3 °F 30.07 in SSE 11.5 mph 8.2 mph 51 % 0.00 in
10:59 61.2 °F 43.4 °F 30.07 in SSE 13.8 mph 9.7 mph 52 % 0.00 in
11:04 61.2 °F 43.4 °F 30.07 in South 10.4 mph 5.5 mph 52 % 0.00 in
11:09 61.9 °F 44.6 °F 30.07 in SSE 11.5 mph 7.1 mph 53 % 0.00 in
11:14 62.4 °F 43.5 °F 30.07 in SSW 11.5 mph 8.1 mph 50 % 0.00 in
11:15 62.4 °F 43.0 °F 30.07 in SSW 11.5 mph 7.4 mph 49 % 0.00 in
15:29 72.7 °F 41.1 °F 29.99 in SE 13.0 mph 6.6 mph 32 % 0.00 in
15:34 72.7 °F 41.1 °F 29.99 in SSE 12.7 mph 8.0 mph 32 % 0.00 in
15:39 72.5 °F 41.0 °F 29.99 in South 9.2 mph 8.2 mph 32 % 0.00 in
15:44 73.0 °F 41.4 °F 29.99 in South 9.2 mph 6.1 mph 32 % 0.00 in
15:49 73.5 °F 41.0 °F 29.99 in SSE 7.0 mph 4.7 mph 31 % 0.00 in
15:54 74.2 °F 41.6 °F 29.99 in SE 8.0 mph 7.6 mph 31 % 0.00 in
15:59 73.9 °F 41.3 °F 29.99 in SE 8.1 mph 5.5 mph 31 % 0.00 in
16:04 73.3 °F 40.8 °F 29.99 in SSW 11.0 mph 5.0 mph 31 % 0.00 in
16:09 73.6 °F 41.1 °F 29.99 in South 10.4 mph 6.4 mph 31 % 0.00 in
16:14 73.5 °F 41.0 °F 29.99 in South 9.2 mph 4.1 mph 31 % 0.00 in
16:19 74.2 °F 41.6 °F 29.98 in SSE 8.1 mph 3.8 mph 31 % 0.00 in
16:24 74.7 °F 41.2 °F 29.98 in SSE 10.4 mph 4.9 mph 30 % 0.00 in
16:29 74.7 °F 40.3 °F 29.98 in South 11.5 mph 8.4 mph 29 % 0.00 in
16:34 74.7 °F 40.3 °F 29.98 in South 7.0 mph 6.6 mph 29 % 0.00 in
16:39 74.7 °F 40.3 °F 29.98 in South 8.0 mph 6.0 mph 29 % 0.00 in
16:44 74.6 °F 40.2 °F 29.98 in South 9.2 mph 4.6 mph 29 % 0.00 in
16:49 75.4 °F 41.8 °F 29.98 in SSE 10.4 mph 5.3 mph 30 % 0.00 in
16:54 75.3 °F 40.8 °F 29.97 in SSW 11.5 mph 3.5 mph 29 % 0.00 in
16:59 75.7 °F 41.2 °F 29.98 in SE 13.8 mph 8.9 mph 29 % 0.00 in
17:04 76.1 °F 40.6 °F 29.98 in SE 8.1 mph 6.7 mph 28 % 0.00 in
17:09 76.2 °F 39.8 °F 29.98 in SE 9.2 mph 5.7 mph 27 % 0.00 in
17:14 75.5 °F 41.0 °F 29.97 in SE 6.9 mph 6.5 mph 29 % 0.00 in
17:19 74.9 °F 41.4 °F 29.97 in SSE 6.9 mph 3.2 mph 30 % 0.00 in
17:24 75.1 °F 39.8 °F 29.97 in SSE 6.9 mph 4.8 mph 28 % 0.00 in
17:29 75.4 °F 40.0 °F 29.97 in SSE 5.8 mph 1.9 mph 28 % 0.00 in
17:34 75.5 °F 40.1 °F 29.97 in South 10.4 mph 7.6 mph 28 % 0.00 in
17:39 76.0 °F 39.6 °F 29.96 in SSE 8.1 mph 5.9 mph 27 % 0.00 in
17:44 76.4 °F 39.0 °F 29.96 in SSE 6.9 mph 6.5 mph 26 % 0.00 in
17:49 76.7 °F 39.2 °F 29.96 in SSE 5.0 mph 2.4 mph 26 % 0.00 in
17:54 77.2 °F 39.6 °F 29.96 in SSE 12.7 mph 9.1 mph 26 % 0.00 in
17:59 77.3 °F 40.7 °F 29.96 in SSE 9.2 mph 5.1 mph 27 % 0.00 in
18:04 76.9 °F 40.4 °F 29.96 in South 12.0 mph 8.8 mph 27 % 0.00 in
18:09 76.3 °F 40.8 °F 29.96 in South 11.5 mph 5.2 mph 28 % 0.00 in
18:14 76.3 °F 40.8 °F 29.96 in South 12.0 mph 5.9 mph 28 % 0.00 in
18:19 76.3 °F 39.8 °F 29.96 in SSE 11.5 mph 8.7 mph 27 % 0.00 in
18:24 76.1 °F 39.7 °F 29.96 in SE 10.0 mph 9.1 mph 27 % 0.00 in
18:29 75.9 °F 40.4 °F 29.96 in SSE 12.7 mph 5.8 mph 28 % 0.00 in
18:34 75.7 °F 39.3 °F 29.96 in South 13.8 mph 5.9 mph 27 % 0.00 in
18:39 75.4 °F 39.1 °F 29.96 in SSW 11.5 mph 5.8 mph 27 % 0.00 in
18:44 75.0 °F 38.7 °F 29.96 in SSW 8.1 mph 4.7 mph 27 % 0.00 in
18:49 74.7 °F 38.5 °F 29.96 in South 9.2 mph 5.7 mph 27 % 0.00 in
18:54 74.7 °F 39.4 °F 29.96 in SSE 10.4 mph 7.2 mph 28 % 0.00 in
18:59 74.8 °F 39.5 °F 29.96 in South 10.0 mph 6.4 mph 28 % 0.00 in
19:04 74.8 °F 38.6 °F 29.96 in South 11.5 mph 5.7 mph 27 % 0.00 in
19:09 74.9 °F 38.7 °F 29.96 in SSW 11.5 mph 7.8 mph 27 % 0.00 in
19:14 74.9 °F 39.6 °F 29.96 in SSE 9.2 mph 7.9 mph 28 % 0.00 in
19:19 75.0 °F 39.7 °F 29.96 in SSW 11.5 mph 7.9 mph 28 % 0.00 in
19:24 74.7 °F 38.5 °F 29.97 in South 9.2 mph 6.0 mph 27 % 0.00 in
19:29 74.5 °F 39.2 °F 29.97 in SSE 11.5 mph 5.8 mph 28 % 0.00 in
19:34 74.4 °F 39.2 °F 29.97 in SSE 8.1 mph 4.3 mph 28 % 0.00 in
19:39 74.4 °F 39.2 °F 29.97 in SE 13.8 mph 9.7 mph 28 % 0.00 in
19:44 74.3 °F 38.1 °F 29.97 in SSE 10.4 mph 7.2 mph 27 % 0.00 in
19:49 73.9 °F 38.7 °F 29.97 in SSE 9.2 mph 6.1 mph 28 % 0.00 in
19:54 73.3 °F 39.1 °F 29.97 in SSE 11.5 mph 7.4 mph 29 % 0.00 in
19:59 72.7 °F 40.3 °F 29.98 in SSE 6.9 mph 5.6 mph 31 % 0.00 in
20:04 72.0 °F 39.7 °F 29.98 in SSE 10.4 mph 6.5 mph 31 % 0.00 in
20:09 71.5 °F 40.1 °F 29.98 in SSE 6.0 mph 6.3 mph 32 % 0.00 in
20:14 71.3 °F 40.7 °F 29.98 in SSE 6.9 mph 3.2 mph 33 % 0.00 in
20:19 71.2 °F 40.6 °F 29.98 in SSE 8.1 mph 4.5 mph 33 % 0.00 in
20:24 71.0 °F 40.4 °F 29.98 in SSE 5.8 mph 4.0 mph 33 % 0.00 in
20:29 70.6 °F 40.9 °F 29.98 in South 10.4 mph 7.6 mph 34 % 0.00 in
20:34 70.2 °F 40.5 °F 29.98 in South 9.2 mph 6.6 mph 34 % 0.00 in
20:39 69.8 °F 40.9 °F 29.98 in SSE 9.2 mph 5.7 mph 35 % 0.00 in
20:44 69.3 °F 41.2 °F 29.98 in SSE 8.1 mph 5.3 mph 36 % 0.00 in
20:49 68.9 °F 41.5 °F 29.99 in SSE 10.4 mph 4.6 mph 37 % 0.00 in
20:54 68.5 °F 41.2 °F 29.99 in North 5.8 mph 4.8 mph 37 % 0.00 in
20:59 68.2 °F 40.9 °F 29.99 in SSE 8.1 mph 6.4 mph 37 % 0.00 in
21:04 67.9 °F 41.3 °F 29.99 in SSE 6.9 mph 4.5 mph 38 % 0.00 in
21:09 67.6 °F 41.1 °F 29.99 in South 5.8 mph 5.8 mph 38 % 0.00 in
21:14 67.3 °F 40.8 °F 29.99 in South 6.9 mph 4.4 mph 38 % 0.00 in
21:19 67.0 °F 41.2 °F 29.99 in South 5.8 mph 2.4 mph 39 % 0.00 in
21:24 66.7 °F 41.6 °F 29.99 in South 6.9 mph 4.5 mph 40 % 0.00 in
21:29 66.5 °F 42.1 °F 29.99 in South 8.1 mph 4.6 mph 41 % 0.00 in
21:34 66.1 °F 42.3 °F 29.99 in South 5.8 mph 3.0 mph 42 % 0.00 in
21:39 65.8 °F 42.7 °F 29.99 in South 6.9 mph 4.7 mph 43 % 0.00 in
21:44 65.4 °F 43.5 °F 30.00 in South 8.1 mph 5.4 mph 45 % 0.00 in
21:49 65.1 °F 43.8 °F 30.00 in South 6.0 mph 6.8 mph 46 % 0.00 in
21:54 64.6 °F 44.5 °F 30.00 in South 6.9 mph 5.2 mph 48 % 0.00 in
21:59 64.1 °F 45.1 °F 30.00 in South 9.2 mph 5.5 mph 50 % 0.00 in
22:04 63.6 °F 45.1 °F 30.00 in South 6.9 mph 3.8 mph 51 % 0.00 in
22:09 63.2 °F 45.3 °F 30.00 in South 6.9 mph 6.5 mph 52 % 0.00 in
22:14 62.8 °F 45.4 °F 30.00 in South 10.4 mph 6.8 mph 53 % 0.00 in
22:19 62.4 °F 45.5 °F 30.00 in South 11.5 mph 4.7 mph 54 % 0.00 in
22:24 62.0 °F 45.6 °F 30.00 in South 8.0 mph 5.4 mph 55 % 0.00 in
22:29 61.6 °F 45.3 °F 30.01 in South 6.9 mph 5.1 mph 55 % 0.00 in
22:34 61.3 °F 45.5 °F 30.01 in South 5.8 mph 3.1 mph 56 % 0.00 in
22:39 61.0 °F 45.7 °F 30.01 in South 6.9 mph 5.4 mph 57 % 0.00 in
22:44 60.7 °F 45.8 °F 30.01 in South 7.0 mph 4.4 mph 58 % 0.00 in
22:49 60.5 °F 45.6 °F 30.01 in South 9.2 mph 4.2 mph 58 % 0.00 in
22:54 60.3 °F 45.9 °F 30.01 in South 6.9 mph 4.6 mph 59 % 0.00 in
22:59 60.0 °F 45.6 °F 30.01 in South 9.2 mph 4.2 mph 59 % 0.00 in
23:04 59.8 °F 45.9 °F 30.01 in South 10.4 mph 4.9 mph 60 % 0.00 in
23:09 59.7 °F 45.8 °F 30.01 in South 6.9 mph 2.6 mph 60 % 0.00 in
23:14 59.5 °F 46.0 °F 30.01 in South 9.2 mph 7.3 mph 61 % 0.00 in
23:19 59.4 °F 45.9 °F 30.01 in South 8.1 mph 4.2 mph 61 % 0.00 in
23:24 59.3 °F 46.3 °F 30.01 in North 10.4 mph 6.8 mph 62 % 0.00 in
23:29 59.2 °F 46.2 °F 30.01 in South 6.9 mph 4.3 mph 62 % 0.00 in
23:34 59.0 °F 46.4 °F 30.00 in South 6.9 mph 5.5 mph 63 % 0.00 in
23:39 58.9 °F 46.3 °F 30.00 in South 6.0 mph 5.5 mph 63 % 0.00 in
23:44 58.9 °F 46.3 °F 30.00 in North 6.9 mph 5.2 mph 63 % 0.00 in
23:49 58.8 °F 46.6 °F 30.00 in South 6.9 mph 4.7 mph 64 % 0.00 in
23:54 58.8 °F 46.6 °F 30.00 in South 8.1 mph 3.5 mph 64 % 0.00 in
23:59 58.7 °F 46.5 °F 30.00 in South 6.9 mph 4.8 mph 64 % 0.00 in
Ararat Weather
Compliments of Weather Underground - 2 mb
Click here to send mail.


ABOUT

Live weather data from Ararat, Victoria, Australia, 3377
Data uploaded from Cumulus every 5 minutes to Weather Underground.
This site then downloads the raw data for formatting and display.
Metric and imperial data can be displayed. Graphs and historical data available.
Includes Sun and Moon times and rain image live from BOM.

Check out Ararat Weather on Facebook, Twitter and Google +

Help support ongoing costs by checking out the ads





Follow @AraratWeather